Metar z połowy godziny Komunikat METAR ze strony awiacja.imgw.pl Metar G30 EPWR METAR EPWR 172030Z 13003KT CAVOK 10/08 Q1020 =